Time;durP1;ratioP1;P1;durP2;ratioP2;P2;SDS_P1;SDS_P2;PMS_P1;PMS_P2;Temp;Humidity;BMP_temperature;BMP_pressure;BME280_temperature;BME280_humidity;BME280_pressure;Samples;Min_cycle;Max_cycle;Signal;HPM_P1;HPM_P2
2023/05/10 00:01:36;;;;;;;2.40;2.13;;;9.80;99.90;;;;;;5066623;28;20456;-76
2023/05/10 00:04:03;;;;;;;3.17;2.90;;;9.70;99.90;;;;;;5059796;28;20441;-76
2023/05/10 00:06:31;;;;;;;2.90;2.70;;;9.80;99.90;;;;;;5060307;28;20545;-76
2023/05/10 00:08:58;;;;;;;4.33;3.10;;;9.70;99.90;;;;;;5059575;28;20475;-77
2023/05/10 00:11:26;;;;;;;3.23;2.87;;;9.70;99.90;;;;;;5058589;28;20457;-77
2023/05/10 00:13:54;;;;;;;3.27;2.73;;;9.70;99.90;;;;;;5061156;28;20495;-76
2023/05/10 00:16:21;;;;;;;2.70;2.50;;;9.70;99.90;;;;;;5057233;28;20454;-76
2023/05/10 00:18:48;;;;;;;4.03;2.37;;;9.70;99.90;;;;;;5062193;28;20460;-76
2023/05/10 00:21:15;;;;;;;2.73;2.53;;;9.70;99.90;;;;;;5061233;28;20915;-76
2023/05/10 00:23:42;;;;;;;3.57;2.87;;;9.70;99.90;;;;;;5055929;28;20428;-77
2023/05/10 00:26:09;;;;;;;3.50;2.73;;;9.60;99.90;;;;;;5055050;28;20493;-76
2023/05/10 00:28:37;;;;;;;3.57;2.20;;;9.60;99.90;;;;;;5060461;28;20455;-77
2023/05/10 00:31:04;;;;;;;3.47;2.27;;;9.60;99.90;;;;;;5061275;28;20911;-77
2023/05/10 00:33:31;;;;;;;3.53;3.20;;;9.60;99.90;;;;;;5062336;28;20927;-76
2023/05/10 00:35:58;;;;;;;3.27;2.23;;;9.60;99.90;;;;;;5062552;28;20817;-76
2023/05/10 00:38:25;;;;;;;2.93;2.50;;;9.60;99.90;;;;;;5061126;28;20456;-76
2023/05/10 00:40:52;;;;;;;3.00;2.67;;;9.50;99.90;;;;;;5065264;28;20448;-77
2023/05/10 00:43:19;;;;;;;4.23;2.27;;;9.50;99.90;;;;;;5063318;28;20440;-77
2023/05/10 00:45:48;;;;;;;2.47;2.30;;;9.40;99.90;;;;;;5064858;28;20488;-77
2023/05/10 00:48:15;;;;;;;2.43;2.23;;;9.40;99.90;;;;;;5055159;28;20500;-76
2023/05/10 00:50:42;;;;;;;3.27;2.97;;;9.30;99.90;;;;;;5062409;28;20510;-77
2023/05/10 00:53:10;;;;;;;2.20;2.00;;;9.30;99.90;;;;;;5062470;28;20448;-76
2023/05/10 00:55:37;;;;;;;3.70;2.87;;;9.20;99.90;;;;;;5060750;28;20452;-77
2023/05/10 00:58:05;;;;;;;3.20;2.90;;;9.30;99.90;;;;;;5063471;28;20525;-77
2023/05/10 01:00:34;;;;;;;2.90;2.10;;;9.20;99.90;;;;;;5063354;28;20506;-76
2023/05/10 01:03:02;;;;;;;3.30;3.00;;;9.10;99.90;;;;;;5063087;28;20452;-77
2023/05/10 01:05:30;;;;;;;3.80;3.50;;;9.20;99.90;;;;;;5060007;28;21040;-77
2023/05/10 01:07:57;;;;;;;4.60;3.43;;;9.00;99.90;;;;;;5061955;28;20440;-77
2023/05/10 01:10:24;;;;;;;3.50;2.97;;;8.90;99.90;;;;;;5064231;28;20869;-77
2023/05/10 01:12:52;;;;;;;2.70;2.03;;;8.80;99.90;;;;;;5062222;28;20701;-76
2023/05/10 01:15:19;;;;;;;3.60;1.93;;;8.70;99.90;;;;;;5055300;28;20507;-77
2023/05/10 01:17:49;;;;;;;6.03;3.53;;;8.70;99.90;;;;;;5060034;28;20527;-77
2023/05/10 01:20:17;;;;;;;3.03;2.73;;;8.70;99.90;;;;;;5060137;28;20452;-77
2023/05/10 01:23:05;;;;;;;3.20;2.90;;;8.80;99.90;;;;;;5059738;28;20460;-77
2023/05/10 01:25:44;;;;;;;7.30;3.03;;;8.80;99.90;;;;;;5064624;28;20456;-76
2023/05/10 01:28:30;;;;;;;5.70;2.83;;;8.80;99.90;;;;;;5062195;28;20542;-76
2023/05/10 01:31:14;;;;;;;3.80;2.83;;;8.70;99.90;;;;;;5063303;28;20444;-77
2023/05/10 01:33:51;;;;;;;7.07;3.03;;;8.70;99.90;;;;;;5061275;28;20770;-76
2023/05/10 01:36:26;;;;;;;3.00;2.70;;;8.70;99.90;;;;;;5062282;28;20505;-78
2023/05/10 01:38:59;;;;;;;2.83;2.63;;;8.70;99.90;;;;;;5064238;28;20480;-76
2023/05/10 01:41:36;;;;;;;3.57;3.00;;;8.60;99.90;;;;;;5057694;28;20441;-76
2023/05/10 01:44:16;;;;;;;3.13;2.93;;;8.70;99.90;;;;;;5062946;28;20539;-76
2023/05/10 01:46:43;;;;;;;4.10;3.70;;;8.60;99.90;;;;;;5056850;28;21037;-77
2023/05/10 01:49:16;;;;;;;4.70;2.97;;;8.60;99.90;;;;;;5054077;28;20485;-76
2023/05/10 01:51:48;;;;;;;3.17;2.63;;;8.60;99.90;;;;;;5056567;28;20521;-77
2023/05/10 01:54:18;;;;;;;3.97;3.30;;;8.60;99.90;;;;;;5065616;28;20533;-77
2023/05/10 01:56:48;;;;;;;2.50;2.30;;;8.50;99.90;;;;;;5059220;28;20467;-77
2023/05/10 01:59:20;;;;;;;2.90;2.60;;;8.30;99.90;;;;;;5058947;28;20444;-77
2023/05/10 02:01:48;;;;;;;4.30;2.90;;;8.30;99.90;;;;;;5062418;28;20521;-77
2023/05/10 02:04:18;;;;;;;3.70;2.90;;;8.20;99.90;;;;;;5060102;28;20448;-77
2023/05/10 02:06:48;;;;;;;7.03;4.10;;;8.10;99.90;;;;;;5055060;28;20477;-78
2023/05/10 02:09:16;;;;;;;4.27;3.73;;;8.10;99.90;;;;;;5058803;28;20461;-76
2023/05/10 02:11:44;;;;;;;3.63;3.33;;;8.10;99.90;;;;;;5054554;28;20502;-77
2023/05/10 02:14:13;;;;;;;3.67;3.27;;;8.20;99.90;;;;;;5060029;28;20506;-77
2023/05/10 02:16:41;;;;;;;4.50;4.10;;;8.30;99.90;;;;;;5063436;28;20460;-77
2023/05/10 02:19:09;;;;;;;5.03;3.97;;;8.30;99.90;;;;;;5064427;28;20502;-77
2023/05/10 02:21:40;;;;;;;5.50;3.67;;;8.40;99.90;;;;;;5064628;28;20511;-78
2023/05/10 02:24:08;;;;;;;4.60;3.87;;;8.50;99.90;;;;;;5058255;28;20506;-77
2023/05/10 02:26:37;;;;;;;5.10;4.50;;;8.70;99.90;;;;;;5065197;28;20549;-77
2023/05/10 02:29:06;;;;;;;6.20;5.33;;;8.80;99.90;;;;;;5059978;28;20962;-76
2023/05/10 02:31:34;;;;;;;5.47;4.90;;;9.10;99.90;;;;;;5056629;28;20445;-77
2023/05/10 02:34:02;;;;;;;4.83;4.40;;;9.10;99.90;;;;;;5058786;28;20861;-77
2023/05/10 02:36:31;;;;;;;6.50;5.90;;;9.20;99.90;;;;;;5067802;28;20464;-77
2023/05/10 02:39:01;;;;;;;5.80;5.17;;;9.20;99.90;;;;;;5065090;28;20484;-76
2023/05/10 02:41:29;;;;;;;5.57;5.03;;;9.10;99.90;;;;;;5065342;28;20566;-77
2023/05/10 02:44:00;;;;;;;8.40;4.87;;;9.00;99.90;;;;;;5072503;28;20460;-76
2023/05/10 02:46:27;;;;;;;5.20;4.70;;;9.10;99.90;;;;;;5066939;28;20567;-77
2023/05/10 02:48:54;;;;;;;4.90;4.40;;;9.10;99.90;;;;;;5072397;28;21171;-78
2023/05/10 02:51:25;;;;;;;6.43;4.50;;;9.20;99.90;;;;;;5066524;28;21126;-77
2023/05/10 02:53:54;;;;;;;4.70;3.90;;;9.20;99.90;;;;;;5062951;28;21001;-76
2023/05/10 02:56:29;;;;;;;4.73;4.23;;;9.20;99.90;;;;;;5064867;28;20988;-76
2023/05/10 02:58:56;;;;;;;6.87;4.50;;;9.20;99.90;;;;;;5066541;28;20463;-78
2023/05/10 03:01:23;;;;;;;6.40;5.13;;;9.20;99.90;;;;;;5058863;28;20538;-76
2023/05/10 03:03:50;;;;;;;5.57;4.97;;;9.10;99.90;;;;;;5060450;28;20517;-76
2023/05/10 03:06:17;;;;;;;4.33;3.93;;;9.20;99.90;;;;;;5061116;28;20536;-77
2023/05/10 03:08:45;;;;;;;4.50;4.20;;;9.30;99.90;;;;;;5055873;28;20537;-76
2023/05/10 03:11:29;;;;;;;4.17;3.80;;;9.40;99.90;;;;;;5064274;28;21057;-77
2023/05/10 03:14:09;;;;;;;4.73;4.23;;;9.50;99.90;;;;;;5064518;28;20470;-77
2023/05/10 03:16:43;;;;;;;6.10;5.50;;;9.40;99.90;;;;;;5058074;28;20459;-77
2023/05/10 03:19:17;;;;;;;5.90;4.77;;;9.40;99.90;;;;;;5053325;28;20461;-77
2023/05/10 03:21:50;;;;;;;4.57;4.20;;;9.50;99.90;;;;;;5054468;28;20506;-77
2023/05/10 03:24:19;;;;;;;5.77;5.27;;;9.50;99.90;;;;;;5065170;28;20464;-76
2023/05/10 03:26:49;;;;;;;4.73;4.30;;;9.60;99.90;;;;;;5056648;28;20484;-77
2023/05/10 03:29:18;;;;;;;5.80;5.20;;;9.60;99.90;;;;;;5066010;28;20463;-77
2023/05/10 03:31:45;;;;;;;6.20;5.30;;;9.70;99.90;;;;;;5060981;28;21035;-76
2023/05/10 03:34:12;;;;;;;6.23;5.10;;;9.80;99.90;;;;;;5060819;28;20465;-77
2023/05/10 03:36:39;;;;;;;5.20;4.70;;;9.90;99.90;;;;;;5066609;28;20985;-76
2023/05/10 03:39:06;;;;;;;5.23;4.10;;;9.90;99.90;;;;;;5061380;28;20493;-77
2023/05/10 03:41:33;;;;;;;5.47;4.97;;;10.00;99.90;;;;;;5062375;28;20449;-77
2023/05/10 03:44:01;;;;;;;5.33;4.83;;;10.10;99.90;;;;;;5061879;28;21124;-77
2023/05/10 03:46:28;;;;;;;8.57;5.20;;;10.00;99.90;;;;;;5058790;28;20449;-78
2023/05/10 03:48:55;;;;;;;4.80;4.40;;;10.00;99.90;;;;;;5061467;28;21217;-76
2023/05/10 03:51:22;;;;;;;5.07;4.60;;;10.10;99.90;;;;;;5059844;28;20951;-77
2023/05/10 03:53:49;;;;;;;4.90;4.40;;;10.10;99.90;;;;;;5053250;28;20490;-76
2023/05/10 03:56:16;;;;;;;6.00;5.07;;;10.10;99.90;;;;;;5067787;28;20791;-76
2023/05/10 03:58:43;;;;;;;5.17;4.70;;;10.10;99.90;;;;;;5065487;28;20436;-76
2023/05/10 04:01:11;;;;;;;3.97;3.57;;;10.10;99.90;;;;;;5059254;28;21023;-76
2023/05/10 04:03:38;;;;;;;5.10;4.50;;;10.20;99.90;;;;;;5058279;28;20437;-76
2023/05/10 04:06:06;;;;;;;5.43;4.00;;;10.10;99.90;;;;;;5065695;28;20449;-77
2023/05/10 04:08:33;;;;;;;6.03;4.60;;;10.20;99.90;;;;;;5065406;28;20484;-77
2023/05/10 04:11:08;;;;;;;5.53;5.00;;;10.20;99.90;;;;;;5058471;28;20468;-77
2023/05/10 04:13:35;;;;;;;4.77;4.30;;;10.30;99.90;;;;;;5058462;28;20432;-76
2023/05/10 04:16:02;;;;;;;5.20;4.60;;;10.30;99.90;;;;;;5055340;28;20490;-76
2023/05/10 04:18:30;;;;;;;3.53;3.07;;;10.30;99.90;;;;;;5060972;28;20442;-76
2023/05/10 04:20:57;;;;;;;5.80;5.30;;;10.30;99.90;;;;;;5051827;28;20469;-77
2023/05/10 04:23:24;;;;;;;4.40;4.00;;;10.40;99.90;;;;;;5056532;28;20452;-77
2023/05/10 04:25:51;;;;;;;3.60;3.30;;;10.50;99.90;;;;;;5061923;28;20788;-76
2023/05/10 04:28:18;;;;;;;5.60;4.97;;;10.60;99.90;;;;;;5062690;28;20476;-76
2023/05/10 04:30:45;;;;;;;4.83;4.40;;;10.70;99.90;;;;;;5062608;28;20444;-77
2023/05/10 04:33:12;;;;;;;4.80;4.40;;;10.90;99.90;;;;;;5065192;28;20498;-77
2023/05/10 04:35:40;;;;;;;4.40;4.00;;;10.90;99.90;;;;;;5061797;28;20468;-77
2023/05/10 04:38:08;;;;;;;4.67;4.00;;;11.00;99.90;;;;;;5064687;28;20441;-77
2023/05/10 04:40:35;;;;;;;4.33;3.93;;;11.00;99.90;;;;;;5060746;28;20839;-77
2023/05/10 04:43:02;;;;;;;3.70;3.40;;;11.20;99.90;;;;;;5055074;28;20456;-77
2023/05/10 04:45:29;;;;;;;4.93;4.43;;;11.20;99.90;;;;;;5062049;28;20495;-76
2023/05/10 04:47:56;;;;;;;7.67;4.33;;;11.30;99.90;;;;;;5065061;28;20914;-77
2023/05/10 04:50:23;;;;;;;4.33;3.80;;;11.30;99.90;;;;;;5060857;28;20464;-77
2023/05/10 04:52:51;;;;;;;4.70;3.60;;;11.40;99.90;;;;;;5059103;28;20514;-77
2023/05/10 04:55:18;;;;;;;4.13;3.73;;;11.40;99.90;;;;;;5061255;28;20926;-77
2023/05/10 04:57:45;;;;;;;5.10;4.60;;;11.30;99.90;;;;;;5059977;28;20552;-77
2023/05/10 05:00:13;;;;;;;5.20;4.20;;;11.30;99.90;;;;;;5061199;28;20459;-78
2023/05/10 05:02:43;;;;;;;3.30;3.00;;;11.20;99.90;;;;;;5057663;28;20510;-76
2023/05/10 05:05:10;;;;;;;4.10;3.70;;;11.20;99.90;;;;;;5053730;28;20440;-78
2023/05/10 05:07:38;;;;;;;5.07;3.93;;;11.30;99.90;;;;;;5052781;28;20971;-83
2023/05/10 05:10:07;;;;;;;3.67;3.33;;;11.30;99.90;;;;;;5055848;28;20452;-76
2023/05/10 05:12:35;;;;;;;5.83;5.13;;;11.40;99.90;;;;;;5064689;28;20497;-76
2023/05/10 05:15:02;;;;;;;4.57;4.10;;;11.50;99.90;;;;;;5063018;28;20542;-76
2023/05/10 05:17:31;;;;;;;4.97;4.20;;;11.50;99.90;;;;;;5062515;28;20462;-76
2023/05/10 05:19:58;;;;;;;6.20;4.00;;;11.60;99.90;;;;;;5060618;28;20923;-76
2023/05/10 05:22:27;;;;;;;4.40;4.00;;;11.60;99.90;;;;;;5064388;28;20802;-76
2023/05/10 05:24:54;;;;;;;5.07;4.60;;;11.80;99.90;;;;;;5064172;28;20464;-76
2023/05/10 05:27:24;;;;;;;3.30;2.83;;;11.80;99.90;;;;;;5063646;28;20484;-76
2023/05/10 05:29:51;;;;;;;3.27;3.07;;;11.80;99.90;;;;;;5058314;28;20457;-76
2023/05/10 05:32:18;;;;;;;4.33;3.73;;;11.80;99.90;;;;;;5059303;28;20503;-76
2023/05/10 05:34:46;;;;;;;3.17;2.97;;;11.80;99.90;;;;;;5056150;28;20458;-76
2023/05/10 05:37:14;;;;;;;4.60;3.90;;;11.70;99.90;;;;;;5059310;28;20544;-76
2023/05/10 05:39:42;;;;;;;5.93;3.60;;;11.60;99.90;;;;;;5057254;28;20453;-77
2023/05/10 05:42:09;;;;;;;3.60;3.30;;;11.70;99.90;;;;;;5060904;28;20475;-76
2023/05/10 05:44:37;;;;;;;4.20;2.50;;;11.60;99.90;;;;;;5064967;28;20501;-76
2023/05/10 05:47:05;;;;;;;4.37;2.63;;;11.60;99.90;;;;;;5058894;28;20821;-76
2023/05/10 05:49:32;;;;;;;2.70;2.50;;;11.50;99.90;;;;;;5057256;28;20943;-76
2023/05/10 05:52:00;;;;;;;4.07;3.77;;;11.60;99.90;;;;;;5069040;28;20539;-77
2023/05/10 05:54:28;;;;;;;6.13;2.90;;;11.50;99.90;;;;;;5073340;28;20556;-78
2023/05/10 05:56:56;;;;;;;3.07;2.77;;;11.50;99.90;;;;;;5067896;28;20456;-78
2023/05/10 05:59:23;;;;;;;3.00;2.80;;;11.60;99.90;;;;;;5064013;28;20449;-78
2023/05/10 06:01:52;;;;;;;3.03;2.80;;;11.60;99.90;;;;;;5062183;28;20998;-77
2023/05/10 06:04:19;;;;;;;3.30;3.00;;;11.60;99.90;;;;;;5057072;28;20563;-77
2023/05/10 06:06:46;;;;;;;3.30;3.00;;;11.60;99.90;;;;;;5064263;28;20987;-77
2023/05/10 06:09:13;;;;;;;6.03;2.90;;;11.50;99.90;;;;;;5054637;28;20484;-77
2023/05/10 06:11:40;;;;;;;3.77;2.83;;;11.50;99.90;;;;;;5065020;28;20529;-77
2023/05/10 06:14:07;;;;;;;5.50;3.70;;;11.50;99.90;;;;;;5062618;28;20517;-77
2023/05/10 06:16:35;;;;;;;3.50;3.00;;;11.60;99.90;;;;;;5065879;28;20452;-77
2023/05/10 06:19:03;;;;;;;4.87;3.83;;;11.60;99.90;;;;;;5070221;28;20473;-77
2023/05/10 06:21:30;;;;;;;4.60;4.20;;;11.70;99.90;;;;;;5067424;28;20439;-77
2023/05/10 06:23:58;;;;;;;4.23;3.77;;;11.70;99.90;;;;;;5064519;28;20583;-76
2023/05/10 06:26:25;;;;;;;4.70;3.47;;;11.80;99.90;;;;;;5068080;28;20464;-77
2023/05/10 06:28:52;;;;;;;7.70;4.57;;;11.80;99.90;;;;;;5065495;28;20480;-76
2023/05/10 06:31:19;;;;;;;5.33;4.80;;;11.90;99.90;;;;;;5069726;28;20563;-77
2023/05/10 06:33:46;;;;;;;6.20;5.53;;;12.00;99.90;;;;;;5069115;28;20467;-77
2023/05/10 06:36:14;;;;;;;6.60;5.90;;;12.00;99.90;;;;;;5068602;28;20498;-77
2023/05/10 06:38:42;;;;;;;6.77;5.10;;;11.90;99.90;;;;;;5067678;28;20452;-77
2023/05/10 06:41:09;;;;;;;6.10;5.50;;;11.60;99.90;;;;;;5064685;28;20463;-77
2023/05/10 06:43:39;;;;;;;13.77;6.90;;;11.60;99.90;;;;;;5063442;28;20513;-81
2023/05/10 06:46:07;;;;;;;8.73;6.67;;;11.50;99.90;;;;;;5053686;28;20452;-77
2023/05/10 06:48:34;;;;;;;8.87;7.80;;;11.50;99.90;;;;;;5067138;28;20487;-80
2023/05/10 06:51:01;;;;;;;8.43;7.47;;;11.40;99.90;;;;;;5054731;28;20519;-77
2023/05/10 06:53:29;;;;;;;8.30;6.67;;;11.30;99.90;;;;;;5066111;28;20510;-77
2023/05/10 06:55:56;;;;;;;8.63;6.43;;;11.20;99.90;;;;;;5058285;28;20931;-77
2023/05/10 06:58:23;;;;;;;6.53;5.90;;;11.20;99.90;;;;;;5065305;28;20806;-77
2023/05/10 07:00:50;;;;;;;12.17;7.07;;;10.90;99.90;;;;;;5056395;28;20444;-78
2023/05/10 07:03:17;;;;;;;5.30;4.90;;;10.90;99.90;;;;;;5064278;28;20464;-78
2023/05/10 07:05:44;;;;;;;6.23;5.30;;;10.90;99.90;;;;;;5059332;28;20440;-74
2023/05/10 07:08:11;;;;;;;6.10;5.30;;;10.90;99.90;;;;;;5053142;28;20828;-77
2023/05/10 07:10:40;;;;;;;5.07;4.67;;;10.80;99.90;;;;;;5058696;28;20464;-75
2023/05/10 07:13:07;;;;;;;5.30;4.73;;;10.90;99.90;;;;;;5051099;28;20437;-79
2023/05/10 07:15:34;;;;;;;6.47;5.70;;;11.00;99.90;;;;;;5054316;28;20445;-78
2023/05/10 07:18:02;;;;;;;5.60;5.10;;;11.10;99.90;;;;;;5063697;28;20518;-78
2023/05/10 07:20:29;;;;;;;5.47;5.07;;;11.10;99.90;;;;;;5053771;28;20461;-81
2023/05/10 07:22:56;;;;;;;4.10;3.70;;;11.00;99.90;;;;;;5063587;28;20460;-84
2023/05/10 07:25:24;;;;;;;4.87;4.47;;;11.40;99.90;;;;;;5062967;28;20449;-82
2023/05/10 07:27:52;;;;;;;4.93;4.50;;;11.60;99.90;;;;;;5065007;28;20533;-76
2023/05/10 07:30:19;;;;;;;5.10;4.60;;;11.70;99.90;;;;;;5060658;28;21001;-78
2023/05/10 07:32:46;;;;;;;4.33;3.93;;;11.90;99.90;;;;;;5064403;28;20452;-79
2023/05/10 07:35:13;;;;;;;4.07;3.63;;;11.80;99.90;;;;;;5061161;28;20859;-77
2023/05/10 07:37:40;;;;;;;3.73;3.40;;;11.70;99.90;;;;;;5062023;28;20562;-77
2023/05/10 07:40:08;;;;;;;4.77;4.37;;;11.70;99.90;;;;;;5067131;28;20486;-79
2023/05/10 07:42:35;;;;;;;4.00;3.70;;;11.70;99.90;;;;;;5063276;28;20508;-80
2023/05/10 07:45:04;;;;;;;3.70;3.17;;;11.90;99.90;;;;;;5063820;28;20470;-80
2023/05/10 07:47:31;;;;;;;4.83;4.03;;;11.90;99.90;;;;;;5059760;28;20441;-81
2023/05/10 07:49:58;;;;;;;3.70;3.40;;;11.90;99.90;;;;;;5059871;28;21012;-80
2023/05/10 07:52:25;;;;;;;4.27;2.97;;;12.10;99.90;;;;;;5056928;28;20523;-77
2023/05/10 07:54:53;;;;;;;4.33;3.97;;;12.40;99.90;;;;;;5067255;28;20461;-78
2023/05/10 07:57:20;;;;;;;5.23;4.17;;;12.60;99.90;;;;;;5062226;28;20457;-79
2023/05/10 07:59:48;;;;;;;3.50;3.20;;;12.60;99.90;;;;;;5058472;28;20491;-77
2023/05/10 08:02:17;;;;;;;4.00;3.63;;;12.80;99.90;;;;;;5059502;28;20522;-79
2023/05/10 08:04:43;;;;;;;5.00;4.50;;;12.80;99.90;;;;;;5057729;28;20507;-78
2023/05/10 08:07:11;;;;;;;4.17;3.83;;;12.60;99.90;;;;;;5062260;28;21191;-79
2023/05/10 08:09:38;;;;;;;3.83;3.53;;;12.60;99.90;;;;;;5058505;28;20823;-80
2023/05/10 08:12:05;;;;;;;5.17;3.30;;;12.40;99.90;;;;;;5061802;28;20472;-79
2023/05/10 08:14:32;;;;;;;5.20;4.30;;;12.20;99.90;;;;;;5064032;28;20507;-79
2023/05/10 08:16:59;;;;;;;5.93;4.10;;;11.90;99.90;;;;;;5060871;28;20452;-79
2023/05/10 08:19:27;;;;;;;8.67;7.87;;;11.80;99.90;;;;;;5061940;28;20480;-78
2023/05/10 08:21:55;;;;;;;4.90;4.50;;;11.80;99.90;;;;;;5063493;28;20453;-78
2023/05/10 08:24:22;;;;;;;4.73;4.33;;;11.80;99.90;;;;;;5065464;28;20452;-78
2023/05/10 08:26:49;;;;;;;9.43;4.90;;;11.90;99.90;;;;;;5067625;28;20478;-80
2023/05/10 08:29:16;;;;;;;5.30;4.80;;;11.90;99.90;;;;;;5063470;28;20480;-78
2023/05/10 08:31:43;;;;;;;5.63;5.13;;;11.90;99.90;;;;;;5067473;28;20467;-77
2023/05/10 08:34:10;;;;;;;4.70;4.30;;;11.90;99.90;;;;;;5065298;28;20499;-78
2023/05/10 08:36:38;;;;;;;4.90;4.40;;;12.00;99.90;;;;;;5066281;28;20506;-77
2023/05/10 08:39:05;;;;;;;4.53;4.13;;;12.20;99.90;;;;;;5065226;28;20505;-80
2023/05/10 08:41:36;;;;;;;5.10;4.63;;;12.20;99.90;;;;;;5066750;28;20451;-80
2023/05/10 08:44:05;;;;;;;14.97;7.40;;;12.30;99.90;;;;;;5062831;28;20445;-78
2023/05/10 08:46:36;;;;;;;6.80;5.90;;;12.30;99.90;;;;;;5063871;28;20474;-77
2023/05/10 08:49:05;;;;;;;7.80;7.10;;;12.40;99.90;;;;;;5062284;28;20507;-77
2023/05/10 08:51:36;;;;;;;5.07;4.63;;;12.40;99.90;;;;;;5054317;28;20864;-80
2023/05/10 08:54:06;;;;;;;6.03;5.60;;;12.60;99.90;;;;;;5066442;28;20444;-78
2023/05/10 08:56:33;;;;;;;5.13;4.73;;;12.80;99.90;;;;;;5066567;28;20470;-80
2023/05/10 08:59:00;;;;;;;4.70;4.40;;;12.90;99.90;;;;;;5070125;28;20448;-81
2023/05/10 09:01:28;;;;;;;6.83;5.87;;;13.20;99.90;;;;;;5074807;28;20457;-80
2023/05/10 09:03:56;;;;;;;5.97;5.47;;;13.40;99.90;;;;;;5080751;28;20464;-80
2023/05/10 09:06:23;;;;;;;6.10;5.60;;;13.10;99.90;;;;;;5066660;28;20509;-80
2023/05/10 09:08:50;;;;;;;6.67;5.00;;;13.10;99.90;;;;;;5061326;28;20538;-79
2023/05/10 09:11:20;;;;;;;7.83;7.20;;;12.90;99.90;;;;;;5059898;28;20450;-84
2023/05/10 09:13:49;;;;;;;4.77;4.37;;;13.10;99.90;;;;;;5064864;28;20466;-84
2023/05/10 09:16:16;;;;;;;6.63;6.03;;;13.00;99.90;;;;;;5066903;28;20502;-86
2023/05/10 09:18:43;;;;;;;10.33;4.60;;;13.00;99.90;;;;;;5056595;28;20510;-81
2023/05/10 09:21:11;;;;;;;5.90;5.40;;;13.00;99.90;;;;;;5066094;28;20936;-82
2023/05/10 09:23:38;;;;;;;8.47;6.90;;;13.10;99.90;;;;;;5066432;28;20505;-82
2023/05/10 09:26:05;;;;;;;5.50;4.97;;;13.10;99.90;;;;;;5059615;28;20441;-80
2023/05/10 09:28:35;;;;;;;6.33;5.37;;;13.00;99.90;;;;;;5061622;28;20491;-88
2023/05/10 09:31:02;;;;;;;6.93;6.43;;;13.20;99.90;;;;;;5057219;28;20445;-80
2023/05/10 09:33:29;;;;;;;6.40;5.83;;;13.00;99.90;;;;;;5054451;28;20677;-81
2023/05/10 09:35:56;;;;;;;8.13;6.77;;;13.00;99.90;;;;;;5056240;28;20836;-81
2023/05/10 09:38:23;;;;;;;7.30;6.70;;;13.40;99.90;;;;;;5055528;28;20441;-81
2023/05/10 09:40:55;;;;;;;7.30;6.43;;;13.50;99.90;;;;;;5049326;28;20453;-83
2023/05/10 09:43:22;;;;;;;6.20;5.73;;;13.30;99.90;;;;;;5060694;28;20448;-81
2023/05/10 09:45:50;;;;;;;7.50;6.80;;;13.60;99.90;;;;;;5057435;28;21018;-81
2023/05/10 09:48:17;;;;;;;6.90;6.30;;;13.90;99.90;;;;;;5050328;28;20522;-81
2023/05/10 09:50:44;;;;;;;7.50;6.53;;;13.80;99.90;;;;;;5064005;28;20510;-81
2023/05/10 09:53:16;;;;;;;7.10;6.40;;;13.50;99.90;;;;;;5067057;28;20440;-82
2023/05/10 09:55:46;;;;;;;5.43;5.13;;;13.90;99.90;;;;;;5061206;28;20914;-81
2023/05/10 09:58:14;;;;;;;7.53;5.70;;;14.10;99.90;;;;;;5060914;28;20449;-81
2023/05/10 10:00:42;;;;;;;6.67;6.17;;;14.20;99.90;;;;;;5062225;28;20428;-81
2023/05/10 10:03:15;;;;;;;7.47;6.87;;;14.30;99.90;;;;;;5065858;28;20509;-81
2023/05/10 10:05:44;;;;;;;7.07;6.57;;;14.30;99.90;;;;;;5049601;28;20495;-86
2023/05/10 10:08:12;;;;;;;7.37;6.67;;;14.30;99.90;;;;;;5065532;28;20484;-81
2023/05/10 10:10:40;;;;;;;6.13;5.40;;;14.40;99.90;;;;;;5066950;28;20484;-81
2023/05/10 10:13:07;;;;;;;7.43;6.50;;;14.10;99.90;;;;;;5065911;28;20444;-81
2023/05/10 10:15:35;;;;;;;6.53;5.93;;;13.80;99.90;;;;;;5058673;28;21088;-82
2023/05/10 10:18:03;;;;;;;7.83;6.63;;;13.80;99.90;;;;;;5062565;28;20464;-81
2023/05/10 10:20:31;;;;;;;6.57;6.07;;;14.00;99.90;;;;;;5055991;28;20448;-79
2023/05/10 10:22:58;;;;;;;6.20;5.60;;;14.20;99.90;;;;;;5061557;28;20445;-84
2023/05/10 10:25:26;;;;;;;6.93;6.37;;;14.30;99.90;;;;;;5064621;28;20448;-81
2023/05/10 10:28:08;;;;;;;6.40;5.83;;;14.30;99.90;;;;;;5068655;28;20448;-80
2023/05/10 10:30:41;;;;;;;6.57;5.97;;;14.40;99.90;;;;;;5068608;28;20482;-79
2023/05/10 10:33:37;;;;;;;7.07;6.57;;;14.40;99.90;;;;;;5066095;28;20498;-79
2023/05/10 10:36:06;;;;;;;6.17;5.77;;;14.40;99.90;;;;;;5054630;28;20511;-79
2023/05/10 10:38:59;;;;;;;8.33;7.57;;;14.20;99.90;;;;;;5063825;28;20436;-78
2023/05/10 10:41:31;;;;;;;6.73;6.00;;;14.30;99.90;;;;;;5057879;28;20488;-80
2023/05/10 10:44:27;;;;;;;7.90;7.20;;;14.30;99.90;;;;;;5068404;28;20433;-80
2023/05/10 10:47:02;;;;;;;6.63;6.03;;;14.20;99.90;;;;;;5067332;28;20497;-80
2023/05/10 10:49:31;;;;;;;7.10;6.60;;;14.40;99.90;;;;;;5064706;28;20864;-80
2023/05/10 10:52:22;;;;;;;7.40;6.70;;;14.30;99.90;;;;;;5063927;28;21173;-80
2023/05/10 10:54:52;;;;;;;7.43;6.80;;;14.50;99.90;;;;;;5058757;28;20449;-81
2023/05/10 10:57:21;;;;;;;6.93;6.30;;;14.50;99.90;;;;;;5063401;28;20450;-85
2023/05/10 10:59:49;;;;;;;7.33;6.40;;;14.60;99.90;;;;;;5065382;28;20495;-83
2023/05/10 11:02:35;;;;;;;8.70;7.93;;;14.70;99.90;;;;;;5068395;28;20472;-83
2023/05/10 11:05:40;;;;;;;7.00;6.27;;;14.70;99.90;;;;;;5064559;28;20779;-83
2023/05/10 11:08:19;;;;;;;8.20;7.50;;;14.80;99.90;;;;;;5065464;28;20437;-83
2023/05/10 11:11:07;;;;;;;7.93;7.23;;;14.70;99.90;;;;;;5059277;28;21453;-81
2023/05/10 11:13:38;;;;;;;6.60;6.20;;;15.00;99.90;;;;;;5060689;28;20517;-80
2023/05/10 11:16:15;;;;;;;7.27;6.67;;;15.20;99.90;;;;;;5061855;28;20491;-80
2023/05/10 11:18:54;;;;;;;7.30;6.70;;;15.20;99.90;;;;;;5068108;28;20497;-80
2023/05/10 11:21:21;;;;;;;7.33;6.63;;;15.20;99.90;;;;;;5068785;28;20452;-81
2023/05/10 11:23:56;;;;;;;6.90;6.40;;;15.20;99.90;;;;;;5059629;28;20487;-81
2023/05/10 11:26:25;;;;;;;7.30;6.80;;;15.60;99.90;;;;;;5068218;28;20451;-81
2023/05/10 11:28:55;;;;;;;7.03;6.50;;;15.40;99.90;;;;;;5064157;28;20548;-81
2023/05/10 11:31:22;;;;;;;6.40;5.90;;;15.10;99.90;;;;;;5067701;28;20439;-81
2023/05/10 11:33:51;;;;;;;7.50;6.83;;;15.40;99.90;;;;;;5057336;28;20464;-81
2023/05/10 11:36:19;;;;;;;6.87;6.30;;;15.50;99.90;;;;;;5067353;28;20840;-81
2023/05/10 11:38:47;;;;;;;6.43;5.83;;;15.70;99.90;;;;;;5068100;28;20998;-81
2023/05/10 11:41:18;;;;;;;6.60;5.90;;;15.50;99.90;;;;;;5064591;28;20461;-81
2023/05/10 11:43:48;;;;;;;7.50;6.90;;;15.00;99.90;;;;;;5065070;28;20428;-81
2023/05/10 11:46:16;;;;;;;6.80;6.30;;;14.90;99.90;;;;;;5068361;28;20765;-81
2023/05/10 11:48:44;;;;;;;7.70;7.10;;;14.50;99.90;;;;;;5068440;28;20606;-80
2023/05/10 11:51:12;;;;;;;8.60;7.80;;;14.30;99.90;;;;;;5061073;28;20496;-80
2023/05/10 11:53:39;;;;;;;8.43;7.60;;;14.20;99.90;;;;;;5062359;28;21000;-80
2023/05/10 11:56:07;;;;;;;9.37;8.57;;;14.30;99.90;;;;;;5066234;28;20440;-80
2023/05/10 11:58:36;;;;;;;12.93;10.20;;;14.10;99.90;;;;;;5067168;28;20570;-80
2023/05/10 12:01:04;;;;;;;9.03;8.43;;;14.00;99.90;;;;;;5065899;28;20808;-81
2023/05/10 12:03:32;;;;;;;10.07;9.20;;;13.80;99.90;;;;;;5067592;28;21029;-80
2023/05/10 12:06:00;;;;;;;8.13;7.43;;;13.90;99.90;;;;;;5067014;28;20449;-81
2023/05/10 12:08:29;;;;;;;10.10;9.17;;;13.80;99.90;;;;;;5066486;28;20808;-80
2023/05/10 12:11:06;;;;;;;9.70;8.90;;;13.90;99.90;;;;;;5069618;28;20749;-80
2023/05/10 12:13:38;;;;;;;41.40;37.03;;;14.10;99.90;;;;;;5077452;28;20501;-81
2023/05/10 12:16:14;;;;;;;10.00;9.20;;;14.10;99.90;;;;;;5077979;28;20440;-80
2023/05/10 12:18:42;;;;;;;7.73;7.13;;;14.20;99.90;;;;;;5081470;28;20542;-81
2023/05/10 12:21:11;;;;;;;9.70;8.90;;;14.10;99.90;;;;;;5073679;28;20645;-80
2023/05/10 12:23:38;;;;;;;8.23;7.53;;;14.40;99.90;;;;;;5065501;28;20463;-81
2023/05/10 12:26:06;;;;;;;9.60;8.73;;;14.90;99.90;;;;;;5059782;28;20458;-80
2023/05/10 12:28:35;;;;;;;14.63;12.40;;;15.00;99.90;;;;;;5057508;28;21579;-80
2023/05/10 12:31:02;;;;;;;12.90;10.33;;;15.10;99.90;;;;;;5067726;28;20495;-80
2023/05/10 12:33:38;;;;;;;13.63;11.87;;;15.00;99.90;;;;;;5058875;28;20460;-80
2023/05/10 12:36:06;;;;;;;6.60;6.10;;;15.40;99.90;;;;;;5060578;28;20973;-81
2023/05/10 12:38:35;;;;;;;5.63;5.23;;;15.80;99.90;;;;;;5067317;28;20437;-81
2023/05/10 12:41:03;;;;;;;6.53;6.03;;;16.40;99.90;;;;;;5065774;28;20528;-80
2023/05/10 12:43:31;;;;;;;5.00;4.50;;;16.70;99.90;;;;;;5060370;28;20437;-80
2023/05/10 12:45:59;;;;;;;4.80;4.50;;;16.70;99.90;;;;;;5062140;28;20468;-80
2023/05/10 12:48:28;;;;;;;5.13;4.83;;;16.90;99.90;;;;;;5059528;28;20500;-80
2023/05/10 12:50:55;;;;;;;5.37;5.03;;;16.80;99.90;;;;;;5063848;28;20567;-81
2023/05/10 12:53:22;;;;;;;4.70;4.40;;;16.70;99.90;;;;;;5064375;28;20545;-81
2023/05/10 12:55:49;;;;;;;5.37;4.97;;;16.60;99.90;;;;;;5065147;28;20449;-81
2023/05/10 12:58:16;;;;;;;5.50;5.20;;;16.90;99.90;;;;;;5065545;28;20454;-81